createdAt,value
2019-06-08T00:01:33.272Z,22.86
2019-06-08T00:04:05.484Z,22.89
2019-06-08T00:06:37.658Z,22.72
2019-06-08T00:09:09.663Z,22.74
2019-06-08T00:11:41.785Z,22.68
2019-06-08T00:14:15.186Z,22.57
2019-06-08T00:16:47.347Z,22.52
2019-06-08T00:19:19.803Z,22.65
2019-06-08T00:21:52.003Z,22.86
2019-06-08T00:24:24.185Z,22.79
2019-06-08T00:26:56.393Z,22.61
2019-06-08T00:29:28.489Z,22.44
2019-06-08T00:32:00.646Z,22.38
2019-06-08T00:34:32.779Z,22.25
2019-06-08T00:37:04.856Z,21.91
2019-06-08T00:39:37.037Z,22.24
2019-06-08T00:42:09.220Z,22.26
2019-06-08T00:44:41.294Z,22.08
2019-06-08T00:47:13.507Z,21.86
2019-06-08T00:49:47.083Z,21.84
2019-06-08T00:52:21.088Z,21.75
2019-06-08T00:54:53.344Z,21.84
2019-06-08T00:57:26.038Z,22.02
2019-06-08T00:59:59.908Z,21.64
2019-06-08T01:02:32.010Z,21.82
2019-06-08T01:05:05.819Z,21.88
2019-06-08T01:07:37.898Z,21.88
2019-06-08T01:10:10.090Z,21.79
2019-06-08T01:12:42.995Z,21.79
2019-06-08T01:15:15.373Z,21.97
2019-06-08T01:18:01.671Z,21.89
2019-06-08T01:20:23.472Z,21.99
2019-06-08T01:22:56.062Z,21.93
2019-06-08T01:25:28.278Z,21.79
2019-06-08T01:28:00.594Z,21.61
2019-06-08T01:30:33.765Z,21.79
2019-06-08T01:33:05.904Z,21.71
2019-06-08T01:35:38.051Z,21.80
2019-06-08T01:38:10.246Z,21.57
2019-06-08T01:40:42.447Z,21.70
2019-06-08T01:43:14.691Z,21.44
2019-06-08T01:45:46.931Z,21.33
2019-06-08T01:48:20.566Z,21.27
2019-06-08T01:50:53.546Z,21.35
2019-06-08T01:53:26.832Z,21.33
2019-06-08T01:55:59.153Z,21.11
2019-06-08T01:58:31.494Z,21.18
2019-06-08T02:01:03.821Z,21.37
2019-06-08T02:03:35.915Z,21.35
2019-06-08T02:06:08.172Z,21.40
2019-06-08T02:08:40.334Z,21.44
2019-06-08T02:11:12.491Z,21.44
2019-06-08T02:13:44.682Z,21.53
2019-06-08T02:16:16.720Z,21.49
2019-06-08T02:18:51.114Z,21.49
2019-06-08T02:21:22.526Z,21.55
2019-06-08T02:23:54.688Z,21.38
2019-06-08T02:26:28.651Z,21.25
2019-06-08T02:29:00.998Z,21.58
2019-06-08T02:31:34.803Z,21.35
2019-06-08T02:34:07.172Z,21.37
2019-06-08T02:36:40.716Z,21.26
2019-06-08T02:39:13.157Z,21.49
2019-06-08T02:41:45.252Z,21.48
2019-06-08T02:44:17.496Z,21.56
2019-06-08T02:46:49.598Z,21.31
2019-06-08T02:49:21.728Z,21.34
2019-06-08T02:51:54.382Z,21.48
2019-06-08T02:54:26.491Z,21.43
2019-06-08T02:56:59.287Z,21.54
2019-06-08T02:59:31.392Z,21.41
2019-06-08T03:02:03.581Z,21.49
2019-06-08T03:04:38.828Z,21.41
2019-06-08T03:07:12.146Z,21.41
2019-06-08T03:09:44.345Z,21.54
2019-06-08T03:12:16.390Z,21.82
2019-06-08T03:14:48.577Z,21.61
2019-06-08T03:17:20.684Z,21.61
2019-06-08T03:19:52.790Z,21.84
2019-06-08T03:22:24.920Z,21.66
2019-06-08T03:24:57.095Z,21.77
2019-06-08T03:27:29.372Z,21.88
2019-06-08T03:30:16.714Z,21.72
2019-06-08T03:32:39.803Z,21.78
2019-06-08T03:35:10.834Z,21.73
2019-06-08T03:37:44.463Z,21.67
2019-06-08T03:40:17.871Z,21.66
2019-06-08T03:42:51.065Z,21.85
2019-06-08T03:45:23.767Z,21.92
2019-06-08T03:47:55.983Z,22.06
2019-06-08T03:50:28.093Z,22.37
2019-06-08T03:53:00.335Z,22.16
2019-06-08T03:55:32.462Z,22.50
2019-06-08T03:58:04.538Z,22.43
2019-06-08T04:00:38.142Z,22.35
2019-06-08T04:03:10.764Z,22.47
2019-06-08T04:05:44.871Z,22.61
2019-06-08T04:08:17.544Z,22.60
2019-06-08T04:10:50.253Z,22.59
2019-06-08T04:13:22.723Z,22.69
2019-06-08T04:15:54.765Z,22.52
2019-06-08T04:18:26.911Z,22.71
2019-06-08T04:20:58.902Z,22.51
2019-06-08T04:23:31.045Z,22.56
2019-06-08T04:26:03.250Z,22.48
2019-06-08T04:28:35.566Z,22.46
2019-06-08T04:31:07.848Z,22.58
2019-06-08T04:33:40.702Z,22.56
2019-06-08T04:36:13.833Z,22.54
